Time;durP1;ratioP1;P1;durP2;ratioP2;P2;SDS_P1;SDS_P2;PMS_P1;PMS_P2;Temp;Humidity;BMP_temperature;BMP_pressure;BME280_temperature;BME280_humidity;BME280_pressure;Samples;Min_cycle;Max_cycle;Signal;HPM_P1;HPM_P2
2022/02/26 00:00:24;;;;;;;2.97;2.40;;;3.50;90.30;;;;;;5076872;28;20210;-72
2022/02/26 00:02:51;;;;;;;3.42;2.80;;;3.50;90.20;;;;;;5074774;28;20218;-73
2022/02/26 00:05:18;;;;;;;3.53;2.90;;;3.50;90.10;;;;;;5074747;28;20837;-72
2022/02/26 00:07:45;;;;;;;5.25;2.83;;;3.50;89.70;;;;;;5075265;28;20333;-73
2022/02/26 00:10:12;;;;;;;5.15;3.00;;;3.50;89.40;;;;;;5075226;28;20587;-73
2022/02/26 00:12:40;;;;;;;4.18;2.83;;;3.50;89.10;;;;;;5074836;28;20565;-74
2022/02/26 00:15:08;;;;;;;4.95;2.97;;;3.40;88.90;;;;;;5074590;28;20724;-73
2022/02/26 00:17:35;;;;;;;3.90;3.22;;;3.30;88.80;;;;;;5074388;28;20280;-73
2022/02/26 00:20:03;;;;;;;5.93;3.60;;;3.20;89.80;;;;;;5074650;28;20305;-72
2022/02/26 00:22:30;;;;;;;8.27;3.65;;;3.10;90.40;;;;;;5074317;28;20238;-73
2022/02/26 00:24:58;;;;;;;5.85;3.22;;;3.00;90.90;;;;;;5074714;28;20210;-73
2022/02/26 00:27:25;;;;;;;8.25;3.92;;;3.00;91.90;;;;;;5074235;28;20260;-73
2022/02/26 00:29:53;;;;;;;5.07;3.65;;;2.90;92.60;;;;;;5074513;28;20206;-72
2022/02/26 00:32:20;;;;;;;6.30;3.85;;;3.00;93.40;;;;;;5074519;28;20202;-73
2022/02/26 00:34:49;;;;;;;4.50;3.85;;;3.00;93.50;;;;;;5075464;28;20224;-73
2022/02/26 00:37:16;;;;;;;5.93;4.28;;;3.10;93.80;;;;;;5075317;28;20234;-72
2022/02/26 00:39:46;;;;;;;7.85;4.25;;;3.00;93.60;;;;;;5077582;28;20300;-73
2022/02/26 00:42:13;;;;;;;10.18;4.10;;;3.10;93.70;;;;;;5091785;28;20211;-73
2022/02/26 00:44:40;;;;;;;7.28;4.03;;;3.10;93.60;;;;;;5089659;28;20620;-71
2022/02/26 00:47:09;;;;;;;6.10;4.35;;;3.10;93.50;;;;;;5094312;28;20223;-73
2022/02/26 00:49:48;;;;;;;6.97;4.50;;;3.10;93.30;;;;;;5093202;28;20206;-72
2022/02/26 00:52:17;;;;;;;7.78;4.60;;;3.10;93.60;;;;;;5074924;28;20222;-71
2022/02/26 00:54:45;;;;;;;6.13;4.40;;;3.20;93.50;;;;;;5074721;28;20202;-72
2022/02/26 00:57:12;;;;;;;8.98;4.97;;;3.30;93.40;;;;;;5074249;28;20226;-73
2022/02/26 00:59:39;;;;;;;8.75;5.07;;;3.20;92.70;;;;;;5074141;28;20202;-73
2022/02/26 01:02:08;;;;;;;6.85;5.00;;;3.30;92.70;;;;;;5074028;28;20233;-73
2022/02/26 01:04:36;;;;;;;7.15;4.85;;;3.20;92.00;;;;;;5073605;28;20210;-73
2022/02/26 01:07:04;;;;;;;7.00;4.63;;;3.10;92.00;;;;;;5073703;28;20280;-72
2022/02/26 01:09:31;;;;;;;8.68;5.28;;;3.10;92.60;;;;;;5074027;28;20582;-72
2022/02/26 01:11:58;;;;;;;6.68;4.90;;;3.10;92.60;;;;;;5073639;28;20213;-72
2022/02/26 01:14:26;;;;;;;10.05;6.38;;;3.10;92.70;;;;;;5074490;28;20305;-73
2022/02/26 01:16:53;;;;;;;6.60;4.78;;;3.10;92.70;;;;;;5074171;28;20227;-72
2022/02/26 01:19:21;;;;;;;11.50;4.95;;;3.10;93.20;;;;;;5073662;28;20604;-73
2022/02/26 01:21:48;;;;;;;6.43;4.63;;;3.20;93.40;;;;;;5073199;28;20216;-74
2022/02/26 01:24:15;;;;;;;7.88;4.88;;;3.20;93.00;;;;;;5074082;28;20209;-73
2022/02/26 01:26:42;;;;;;;7.50;5.15;;;3.30;93.00;;;;;;5074457;28;20812;-73
2022/02/26 01:29:09;;;;;;;7.22;4.50;;;3.30;92.80;;;;;;5075314;28;20211;-73
2022/02/26 01:31:36;;;;;;;7.72;5.07;;;3.30;92.60;;;;;;5076492;28;20201;-72
2022/02/26 01:34:04;;;;;;;5.78;4.50;;;3.40;92.20;;;;;;5075690;28;20568;-72
2022/02/26 01:36:33;;;;;;;6.07;4.75;;;3.40;91.90;;;;;;5075324;28;20293;-72
2022/02/26 01:39:00;;;;;;;5.93;4.30;;;3.40;91.50;;;;;;5075484;28;20191;-73
2022/02/26 01:41:30;;;;;;;6.20;5.30;;;3.40;91.50;;;;;;5081286;28;20212;-73
2022/02/26 01:43:57;;;;;;;9.50;4.97;;;3.40;91.40;;;;;;5093943;28;20218;-75
2022/02/26 01:46:24;;;;;;;6.95;5.43;;;3.30;91.20;;;;;;5095531;28;20208;-71
2022/02/26 01:48:52;;;;;;;8.38;5.43;;;3.30;91.60;;;;;;5095056;28;20206;-73
2022/02/26 01:51:20;;;;;;;7.72;4.95;;;3.30;91.60;;;;;;5095365;28;20219;-71
2022/02/26 01:53:49;;;;;;;5.80;4.75;;;3.40;91.70;;;;;;5094265;28;20223;-72
2022/02/26 01:56:16;;;;;;;6.22;5.15;;;3.40;91.40;;;;;;5079669;28;20300;-72
2022/02/26 01:58:44;;;;;;;6.40;5.30;;;3.40;91.10;;;;;;5075258;28;20242;-73
2022/02/26 02:01:12;;;;;;;6.25;5.28;;;3.40;91.10;;;;;;5073670;28;20239;-73
2022/02/26 02:03:40;;;;;;;5.45;4.80;;;3.40;91.00;;;;;;5073657;28;20224;-72
2022/02/26 02:06:07;;;;;;;8.00;5.60;;;3.40;91.00;;;;;;5073263;28;20211;-74
2022/02/26 02:08:34;;;;;;;7.07;5.50;;;3.30;91.00;;;;;;5073015;28;20238;-72
2022/02/26 02:11:02;;;;;;;6.55;4.57;;;3.30;91.20;;;;;;5074187;28;20297;-72
2022/02/26 02:13:29;;;;;;;6.75;4.63;;;3.30;91.10;;;;;;5075806;28;20241;-72
2022/02/26 02:15:56;;;;;;;6.97;5.35;;;3.30;91.00;;;;;;5074089;28;20309;-73
2022/02/26 02:18:23;;;;;;;6.90;6.20;;;3.30;91.10;;;;;;5074136;28;20239;-72
2022/02/26 02:20:51;;;;;;;9.55;5.35;;;3.30;91.60;;;;;;5073176;28;20581;-72
2022/02/26 02:23:20;;;;;;;7.50;5.75;;;3.30;91.70;;;;;;5073856;28;20665;-73
2022/02/26 02:25:47;;;;;;;8.82;6.22;;;3.30;92.00;;;;;;5078692;28;20241;-71
2022/02/26 02:28:14;;;;;;;6.18;5.00;;;3.30;91.70;;;;;;5077643;28;20231;-71
2022/02/26 02:30:42;;;;;;;6.93;5.35;;;3.30;91.60;;;;;;5076814;28;20373;-74
2022/02/26 02:33:09;;;;;;;7.82;6.15;;;3.30;91.50;;;;;;5071692;28;20619;-71
2022/02/26 02:35:38;;;;;;;9.63;6.15;;;3.20;91.00;;;;;;5072921;28;20214;-73
2022/02/26 02:38:07;;;;;;;7.55;5.93;;;3.10;91.10;;;;;;5072469;28;20804;-72
2022/02/26 02:40:36;;;;;;;7.72;6.22;;;3.10;91.30;;;;;;5071464;28;20214;-73
2022/02/26 02:43:04;;;;;;;7.05;5.72;;;3.10;91.80;;;;;;5071288;28;20302;-73
2022/02/26 02:45:31;;;;;;;6.22;5.60;;;3.00;92.10;;;;;;5071632;28;20674;-73
2022/02/26 02:47:58;;;;;;;8.55;6.35;;;3.00;92.10;;;;;;5071600;28;20241;-74
2022/02/26 02:50:26;;;;;;;7.88;5.72;;;2.80;92.10;;;;;;5071581;28;20290;-72
2022/02/26 02:52:53;;;;;;;7.18;6.00;;;2.70;92.60;;;;;;5074612;28;20726;-73
2022/02/26 02:55:21;;;;;;;8.95;6.22;;;2.60;93.40;;;;;;5076153;28;20207;-73
2022/02/26 02:57:50;;;;;;;13.02;7.60;;;2.60;94.20;;;;;;5076772;28;20313;-73
2022/02/26 03:00:24;;;;;;;10.85;6.40;;;2.60;94.80;;;;;;5080941;28;20202;-74
2022/02/26 03:02:51;;;;;;;7.97;6.18;;;2.50;95.20;;;;;;5087386;28;20222;-73
2022/02/26 03:05:21;;;;;;;11.73;6.72;;;2.40;95.60;;;;;;5084240;28;20274;-72
2022/02/26 03:07:48;;;;;;;13.63;8.15;;;2.30;95.90;;;;;;5092052;28;20268;-72
2022/02/26 03:10:15;;;;;;;13.23;7.30;;;2.30;96.70;;;;;;5081262;28;20315;-73
2022/02/26 03:12:43;;;;;;;11.60;7.05;;;2.20;97.20;;;;;;5075943;28;20232;-73
2022/02/26 03:15:11;;;;;;;10.38;7.22;;;2.20;98.10;;;;;;5076131;28;20216;-73
2022/02/26 03:17:38;;;;;;;10.98;7.40;;;2.20;98.50;;;;;;5078272;28;20226;-72
2022/02/26 03:20:06;;;;;;;10.85;8.30;;;2.20;99.30;;;;;;5074910;28;20622;-73
2022/02/26 03:22:33;;;;;;;8.40;7.38;;;2.20;99.30;;;;;;5078333;28;20294;-70
2022/02/26 03:25:01;;;;;;;10.35;7.53;;;2.10;99.60;;;;;;5075218;28;20220;-72
2022/02/26 03:27:28;;;;;;;11.20;7.80;;;2.10;99.90;;;;;;5075014;28;20226;-73
2022/02/26 03:29:54;;;;;;;12.05;7.53;;;2.10;99.90;;;;;;5075250;28;20233;-72
2022/02/26 03:32:23;;;;;;;13.57;8.80;;;2.10;99.90;;;;;;5074705;28;20631;-72
2022/02/26 03:34:50;;;;;;;15.75;8.82;;;2.00;99.90;;;;;;5075044;28;20202;-71
2022/02/26 03:37:17;;;;;;;12.13;9.15;;;2.00;99.90;;;;;;5075648;28;20234;-72
2022/02/26 03:39:44;;;;;;;15.20;8.98;;;2.00;99.90;;;;;;5076600;28;20210;-72
2022/02/26 03:42:11;;;;;;;14.48;8.70;;;2.00;99.90;;;;;;5075411;28;20210;-72
2022/02/26 03:44:39;;;;;;;18.33;10.30;;;1.90;99.90;;;;;;5074413;28;20231;-72
2022/02/26 03:47:07;;;;;;;12.02;8.75;;;1.90;99.90;;;;;;5076705;28;20349;-71
2022/02/26 03:49:35;;;;;;;14.75;9.95;;;1.90;99.90;;;;;;5080747;28;20522;-72
2022/02/26 03:52:02;;;;;;;16.63;10.30;;;1.90;99.90;;;;;;5079737;28;20240;-72
2022/02/26 03:54:29;;;;;;;13.93;10.10;;;1.90;99.90;;;;;;5079445;28;20206;-71
2022/02/26 03:56:56;;;;;;;14.95;10.05;;;1.90;99.90;;;;;;5075394;28;20232;-72
2022/02/26 03:59:23;;;;;;;17.10;10.95;;;1.90;99.90;;;;;;5074493;28;20202;-72
2022/02/26 04:01:50;;;;;;;16.55;10.65;;;1.90;99.90;;;;;;5073617;28;20206;-72
2022/02/26 04:04:17;;;;;;;19.17;12.48;;;1.90;99.90;;;;;;5074398;28;20241;-72
2022/02/26 04:06:45;;;;;;;22.92;12.50;;;1.90;99.90;;;;;;5074267;28;20315;-72
2022/02/26 04:09:12;;;;;;;17.20;11.90;;;1.90;99.90;;;;;;5074466;28;20209;-72
2022/02/26 04:11:39;;;;;;;18.40;12.77;;;1.90;99.90;;;;;;5073916;28;20217;-71
2022/02/26 04:14:06;;;;;;;18.77;12.50;;;1.80;99.90;;;;;;5074287;28;20206;-73
2022/02/26 04:16:34;;;;;;;18.23;12.20;;;1.90;99.90;;;;;;5074232;28;20296;-73
2022/02/26 04:19:01;;;;;;;19.30;12.85;;;1.80;99.90;;;;;;5074282;28;20230;-72
2022/02/26 04:21:29;;;;;;;16.35;12.10;;;1.70;99.90;;;;;;5077134;28;20278;-73
2022/02/26 04:23:58;;;;;;;19.40;11.60;;;1.70;99.90;;;;;;5088523;28;20272;-71
2022/02/26 04:26:25;;;;;;;20.73;12.02;;;1.60;99.90;;;;;;5085095;28;20579;-71
2022/02/26 04:28:54;;;;;;;15.95;11.82;;;1.60;99.90;;;;;;5087635;28;20281;-71
2022/02/26 04:31:21;;;;;;;16.48;10.82;;;1.60;99.90;;;;;;5105852;28;20201;-71
2022/02/26 04:33:48;;;;;;;15.68;10.95;;;1.60;99.90;;;;;;5103254;28;20280;-72
2022/02/26 04:36:15;;;;;;;19.58;12.63;;;1.60;99.90;;;;;;5093123;28;20202;-72
2022/02/26 04:38:42;;;;;;;27.10;14.18;;;1.60;99.90;;;;;;5089817;28;20310;-71
2022/02/26 04:41:11;;;;;;;19.98;12.65;;;1.60;99.90;;;;;;5079889;28;20233;-72
2022/02/26 04:43:40;;;;;;;17.95;14.02;;;1.60;99.90;;;;;;5076401;28;20241;-72
2022/02/26 04:46:07;;;;;;;23.05;14.20;;;1.70;99.90;;;;;;5079862;28;20283;-71
2022/02/26 04:48:35;;;;;;;21.33;13.38;;;1.60;99.90;;;;;;5090323;28;20225;-72
2022/02/26 04:51:02;;;;;;;19.85;12.35;;;1.60;99.90;;;;;;5084580;28;20269;-72
2022/02/26 04:53:28;;;;;;;19.10;14.27;;;1.60;99.90;;;;;;5087468;28;20198;-72
2022/02/26 04:55:55;;;;;;;20.23;14.32;;;1.60;99.90;;;;;;5093168;28;20243;-71
2022/02/26 04:58:23;;;;;;;21.73;14.32;;;1.70;99.90;;;;;;5093060;28;20236;-72
2022/02/26 05:00:51;;;;;;;25.92;15.40;;;1.70;99.90;;;;;;5077882;28;20364;-72
2022/02/26 05:03:18;;;;;;;21.52;13.10;;;1.70;99.90;;;;;;5075776;28;20221;-72
2022/02/26 05:05:45;;;;;;;22.83;14.70;;;1.60;99.90;;;;;;5078102;28;20225;-72
2022/02/26 05:08:12;;;;;;;19.75;13.32;;;1.70;99.90;;;;;;5094212;28;20324;-72
2022/02/26 05:10:39;;;;;;;20.33;14.30;;;1.60;99.90;;;;;;5092754;28;20217;-72
2022/02/26 05:13:06;;;;;;;28.30;14.60;;;1.60;99.90;;;;;;5093739;28;20216;-74
2022/02/26 05:15:34;;;;;;;24.67;15.98;;;1.60;99.90;;;;;;5092447;28;20209;-72
2022/02/26 05:18:01;;;;;;;25.52;13.80;;;1.60;99.90;;;;;;5093787;28;20237;-73
2022/02/26 05:20:28;;;;;;;25.55;15.00;;;1.50;99.90;;;;;;5082357;28;20237;-73
2022/02/26 05:22:54;;;;;;;24.27;15.80;;;1.50;99.90;;;;;;5097039;28;20203;-72
2022/02/26 05:25:21;;;;;;;26.70;16.05;;;1.50;99.90;;;;;;5108611;28;20226;-73
2022/02/26 05:27:48;;;;;;;25.85;16.20;;;1.50;99.90;;;;;;5116409;28;20216;-73
2022/02/26 05:30:16;;;;;;;26.65;15.98;;;1.60;99.90;;;;;;5116004;28;20218;-73
2022/02/26 05:32:45;;;;;;;25.70;17.27;;;1.60;99.90;;;;;;5099131;28;20210;-73
2022/02/26 05:35:13;;;;;;;25.30;15.88;;;1.50;99.90;;;;;;5098468;28;20210;-73
2022/02/26 05:37:40;;;;;;;29.35;17.92;;;1.50;99.90;;;;;;5093126;28;20241;-73
2022/02/26 05:40:08;;;;;;;25.45;15.88;;;1.40;99.90;;;;;;5092797;28;20300;-73
2022/02/26 05:42:35;;;;;;;29.10;16.65;;;1.30;99.90;;;;;;5092316;28;20216;-73
2022/02/26 05:45:02;;;;;;;28.08;18.00;;;1.30;99.90;;;;;;5092758;28;20266;-73
2022/02/26 05:47:29;;;;;;;27.25;17.67;;;1.40;99.90;;;;;;5092371;28;20298;-72
2022/02/26 05:49:57;;;;;;;29.27;17.55;;;1.30;99.90;;;;;;5092680;28;20213;-72
2022/02/26 05:52:24;;;;;;;29.75;17.13;;;1.30;99.90;;;;;;5091913;28;20259;-72
2022/02/26 05:54:51;;;;;;;30.55;16.60;;;1.30;99.90;;;;;;5092398;28;20254;-72
2022/02/26 05:57:18;;;;;;;26.08;16.83;;;1.30;99.90;;;;;;5092451;28;20260;-73
2022/02/26 05:59:45;;;;;;;32.35;19.02;;;1.30;99.90;;;;;;5092019;28;20296;-72
2022/02/26 06:02:12;;;;;;;24.90;17.80;;;1.30;99.90;;;;;;5091984;28;20216;-73
2022/02/26 06:04:39;;;;;;;30.92;18.70;;;1.30;99.90;;;;;;5092888;28;20237;-73
2022/02/26 06:07:07;;;;;;;29.25;16.67;;;1.30;99.90;;;;;;5092139;28;20225;-73
2022/02/26 06:09:34;;;;;;;27.25;17.85;;;1.30;99.90;;;;;;5092997;28;20213;-73
2022/02/26 06:12:00;;;;;;;25.45;17.02;;;1.30;99.90;;;;;;5092009;28;20213;-73
2022/02/26 06:14:27;;;;;;;38.50;19.23;;;1.30;99.90;;;;;;5092126;28;20205;-73
2022/02/26 06:16:54;;;;;;;35.83;18.77;;;1.40;99.90;;;;;;5091870;28;20689;-73
2022/02/26 06:19:21;;;;;;;31.35;18.30;;;1.50;99.90;;;;;;5092183;28;20298;-72
2022/02/26 06:21:48;;;;;;;31.65;19.20;;;1.60;99.90;;;;;;5092002;28;20202;-72
2022/02/26 06:24:17;;;;;;;27.20;18.15;;;1.60;99.90;;;;;;5092798;28;20229;-73
2022/02/26 06:26:45;;;;;;;27.92;18.20;;;1.70;99.90;;;;;;5096588;28;20229;-74
2022/02/26 06:29:12;;;;;;;31.58;20.27;;;1.80;99.90;;;;;;5096625;28;20213;-74
2022/02/26 06:31:39;;;;;;;28.98;18.65;;;1.90;99.90;;;;;;5096308;28;20235;-74
2022/02/26 06:34:06;;;;;;;32.63;19.33;;;2.00;99.90;;;;;;5096692;28;20245;-76
2022/02/26 06:36:33;;;;;;;30.25;17.60;;;2.00;99.90;;;;;;5096734;28;20205;-73
2022/02/26 06:39:00;;;;;;;29.00;18.80;;;2.10;99.90;;;;;;5097002;28;20193;-75
2022/02/26 06:41:29;;;;;;;26.33;18.23;;;2.10;99.90;;;;;;5096303;28;20550;-75
2022/02/26 06:43:57;;;;;;;30.15;19.40;;;2.10;99.90;;;;;;5095979;28;20575;-74
2022/02/26 06:46:25;;;;;;;33.08;18.90;;;2.20;99.90;;;;;;5096542;28;20217;-73
2022/02/26 06:48:51;;;;;;;34.80;21.75;;;2.30;99.90;;;;;;5096039;28;20215;-75
2022/02/26 06:51:18;;;;;;;30.45;18.95;;;2.40;99.90;;;;;;5096484;28;20205;-74
2022/02/26 06:53:58;;;;;;;28.20;18.42;;;2.50;99.90;;;;;;5097359;28;20214;-74
2022/02/26 06:56:53;;;;;;;28.45;17.90;;;2.50;99.90;;;;;;5098381;28;20775;-74
2022/02/26 06:59:21;;;;;;;28.77;18.75;;;2.60;99.90;;;;;;5095780;28;20205;-74
2022/02/26 07:01:49;;;;;;;27.17;17.35;;;2.70;99.90;;;;;;5095836;28;20270;-74
2022/02/26 07:04:16;;;;;;;25.58;17.13;;;2.70;99.90;;;;;;5095877;28;20663;-73
2022/02/26 07:06:44;;;;;;;27.23;17.70;;;2.80;99.90;;;;;;5096081;28;20317;-73
2022/02/26 07:09:11;;;;;;;25.90;16.67;;;2.90;99.90;;;;;;5095319;28;20299;-73
2022/02/26 07:11:38;;;;;;;24.50;16.13;;;3.00;99.90;;;;;;5096101;28;20213;-74
2022/02/26 07:14:06;;;;;;;25.42;15.90;;;3.10;99.90;;;;;;5097171;28;20210;-74
2022/02/26 07:17:19;;;;;;;21.92;15.93;;;3.10;99.90;;;;;;5100991;28;20220;-74
2022/02/26 07:19:47;;;;;;;21.50;14.10;;;3.10;99.90;;;;;;5097770;28;20206;-73
2022/02/26 07:22:14;;;;;;;24.85;13.95;;;3.20;99.90;;;;;;5097498;28;20249;-73
2022/02/26 07:24:40;;;;;;;24.13;15.15;;;3.30;99.90;;;;;;5101188;28;20223;-73
2022/02/26 07:27:07;;;;;;;24.55;14.85;;;3.40;99.90;;;;;;5107609;28;20229;-73
2022/02/26 07:29:36;;;;;;;22.20;15.05;;;3.40;99.90;;;;;;5105489;28;20298;-73
2022/02/26 07:32:03;;;;;;;21.60;14.35;;;3.60;99.90;;;;;;5097619;28;20268;-72
2022/02/26 07:34:30;;;;;;;21.90;15.05;;;3.60;99.90;;;;;;5097379;28;20300;-73
2022/02/26 07:36:57;;;;;;;23.80;14.55;;;3.70;99.90;;;;;;5096268;28;20327;-73
2022/02/26 07:39:24;;;;;;;18.33;13.38;;;3.80;99.90;;;;;;5098794;28;20211;-73
2022/02/26 07:41:50;;;;;;;18.88;13.45;;;3.90;99.30;;;;;;5111322;28;20194;-73
2022/02/26 07:44:17;;;;;;;19.77;13.23;;;4.00;97.60;;;;;;5116306;28;20281;-73
2022/02/26 07:46:46;;;;;;;19.98;13.43;;;4.10;95.90;;;;;;5115763;28;20246;-72
2022/02/26 07:49:13;;;;;;;18.20;13.15;;;4.20;94.90;;;;;;5117871;28;20230;-73
2022/02/26 07:51:39;;;;;;;21.58;13.95;;;4.30;92.70;;;;;;5112216;28;20314;-73
2022/02/26 07:54:06;;;;;;;19.63;13.07;;;4.50;91.50;;;;;;5098647;28;20229;-73
2022/02/26 07:56:33;;;;;;;22.77;14.38;;;4.60;90.70;;;;;;5095390;28;20225;-75
2022/02/26 07:59:00;;;;;;;27.48;14.07;;;4.50;86.60;;;;;;5095789;28;20211;-73
2022/02/26 08:01:27;;;;;;;14.10;11.85;;;4.40;86.50;;;;;;5095249;28;20374;-74
2022/02/26 08:03:55;;;;;;;17.13;12.00;;;4.60;85.70;;;;;;5095521;28;20305;-72
2022/02/26 08:06:22;;;;;;;20.63;13.20;;;4.80;83.60;;;;;;5095318;28;20279;-73
2022/02/26 08:08:49;;;;;;;18.13;12.93;;;4.80;81.90;;;;;;5096811;28;20323;-74
2022/02/26 08:11:16;;;;;;;14.50;11.90;;;4.80;79.40;;;;;;5095863;28;20385;-73
2022/02/26 08:13:43;;;;;;;20.42;12.80;;;4.90;78.60;;;;;;5096157;28;20207;-74
2022/02/26 08:16:10;;;;;;;16.25;11.82;;;5.00;77.70;;;;;;5096364;28;20664;-75
2022/02/26 08:18:37;;;;;;;17.02;12.32;;;5.10;77.10;;;;;;5098788;28;20243;-74
2022/02/26 08:21:05;;;;;;;15.30;11.48;;;5.20;74.90;;;;;;5095545;28;20207;-73
2022/02/26 08:23:32;;;;;;;17.02;11.23;;;5.20;74.10;;;;;;5094582;28;20206;-74
2022/02/26 08:26:00;;;;;;;13.75;11.05;;;5.20;73.20;;;;;;5094445;28;20223;-73
2022/02/26 08:28:27;;;;;;;17.83;12.32;;;5.30;73.90;;;;;;5094854;28;20269;-74
2022/02/26 08:30:54;;;;;;;18.67;12.48;;;5.30;73.30;;;;;;5094950;28;20639;-76
2022/02/26 08:33:21;;;;;;;15.57;11.82;;;5.20;71.80;;;;;;5098589;28;20234;-75
2022/02/26 08:35:48;;;;;;;21.00;12.20;;;5.20;72.00;;;;;;5096860;28;20206;-73
2022/02/26 08:38:16;;;;;;;19.33;12.13;;;5.00;71.60;;;;;;5095169;28;20323;-75
2022/02/26 08:40:43;;;;;;;17.90;12.10;;;5.00;73.00;;;;;;5095115;28;20218;-74
2022/02/26 08:43:09;;;;;;;17.30;12.02;;;5.00;73.00;;;;;;5095644;28;20246;-75
2022/02/26 08:45:36;;;;;;;14.07;11.13;;;5.10;73.10;;;;;;5094243;28;20598;-74
2022/02/26 08:48:03;;;;;;;16.10;11.95;;;5.00;71.80;;;;;;5094763;28;20708;-74
2022/02/26 08:50:30;;;;;;;16.27;12.00;;;5.10;71.20;;;;;;5094526;28;20218;-74
2022/02/26 08:52:57;;;;;;;21.02;11.40;;;5.10;70.70;;;;;;5095344;28;20299;-74
2022/02/26 08:55:25;;;;;;;20.63;10.70;;;5.30;70.80;;;;;;5094911;28;20674;-74
2022/02/26 08:57:52;;;;;;;18.73;10.35;;;5.30;69.50;;;;;;5094216;28;20255;-74
2022/02/26 09:00:20;;;;;;;15.82;10.63;;;5.10;67.70;;;;;;5094206;28;20332;-74
2022/02/26 09:02:46;;;;;;;13.70;10.38;;;5.30;67.50;;;;;;5094393;28;20217;-73
2022/02/26 09:05:13;;;;;;;14.40;8.85;;;5.10;69.40;;;;;;5094179;28;20230;-76
2022/02/26 09:07:40;;;;;;;17.08;8.80;;;5.00;68.20;;;;;;5093787;28;20227;-73
2022/02/26 09:10:08;;;;;;;15.80;9.48;;;5.00;66.70;;;;;;5094018;28;20207;-75
2022/02/26 09:12:37;;;;;;;21.23;9.57;;;5.10;66.50;;;;;;5094328;28;20262;-76
2022/02/26 09:15:05;;;;;;;18.23;9.27;;;5.10;66.30;;;;;;5094293;28;20253;-75
2022/02/26 09:17:31;;;;;;;15.90;9.80;;;5.10;66.00;;;;;;5095906;28;20232;-74
2022/02/26 09:19:58;;;;;;;15.20;8.68;;;5.10;66.50;;;;;;5093056;28;20301;-74
2022/02/26 09:22:25;;;;;;;16.60;9.65;;;5.00;64.40;;;;;;5095883;28;20717;-75
2022/02/26 09:24:52;;;;;;;16.67;9.70;;;4.90;64.20;;;;;;5093955;28;20245;-75
2022/02/26 09:27:19;;;;;;;16.27;10.77;;;4.90;65.40;;;;;;5093843;28;20318;-75
2022/02/26 09:29:47;;;;;;;16.05;9.15;;;4.90;65.00;;;;;;5094296;28;20216;-74
2022/02/26 09:32:14;;;;;;;18.02;8.77;;;4.70;65.20;;;;;;5093667;28;20736;-75
2022/02/26 09:34:41;;;;;;;15.35;8.90;;;4.80;65.90;;;;;;5093635;28;20222;-75
2022/02/26 09:37:08;;;;;;;11.60;8.07;;;5.00;64.40;;;;;;5093365;28;20300;-74
2022/02/26 09:39:37;;;;;;;25.05;8.07;;;5.20;64.50;;;;;;5095294;28;20260;-74
2022/02/26 09:42:05;;;;;;;15.70;8.35;;;5.40;62.50;;;;;;5093554;28;20210;-74
2022/02/26 09:44:32;;;;;;;15.23;8.52;;;5.30;60.70;;;;;;5093415;28;20332;-74
2022/02/26 09:47:01;;;;;;;13.13;7.10;;;5.30;62.30;;;;;;5093681;28;20226;-75
2022/02/26 09:49:27;;;;;;;11.32;6.25;;;5.50;57.00;;;;;;5094266;28;20719;-74
2022/02/26 09:51:56;;;;;;;13.05;8.10;;;5.60;56.80;;;;;;5093667;28;20292;-74
2022/02/26 09:54:22;;;;;;;11.77;6.57;;;5.60;57.00;;;;;;5094317;28;20205;-74
2022/02/26 09:56:49;;;;;;;15.57;7.93;;;5.70;55.90;;;;;;5096299;28;20232;-74
2022/02/26 09:59:16;;;;;;;8.98;5.80;;;5.90;55.90;;;;;;5096275;28;20301;-74
2022/02/26 10:02:08;;;;;;;12.13;5.47;;;6.00;53.40;;;;;;5095180;28;20234;-75
2022/02/26 10:04:37;;;;;;;10.13;6.47;;;6.10;51.60;;;;;;5109634;28;20187;-74
2022/02/26 10:07:12;;;;;;;11.45;5.70;;;6.00;52.80;;;;;;5112711;28;20226;-73
2022/02/26 10:09:41;;;;;;;9.35;4.65;;;5.50;51.10;;;;;;5115518;28;20221;-75
2022/02/26 10:12:29;;;;;;;7.22;4.00;;;5.70;49.20;;;;;;5116135;28;20190;-74
2022/02/26 10:15:00;;;;;;;7.70;4.35;;;5.70;48.00;;;;;;5092085;28;20206;-75
2022/02/26 10:17:31;;;;;;;14.68;5.05;;;5.80;47.50;;;;;;5101083;28;20234;-74
2022/02/26 10:20:07;;;;;;;12.70;4.90;;;6.00;46.80;;;;;;5094714;28;20279;-73
2022/02/26 10:22:35;;;;;;;10.55;4.88;;;6.20;46.90;;;;;;5095138;28;20207;-73
2022/02/26 10:25:10;;;;;;;13.23;4.90;;;6.20;46.90;;;;;;5102873;28;20226;-74
2022/02/26 10:27:42;;;;;;;10.77;4.20;;;6.30;48.10;;;;;;5106919;28;20260;-75
2022/02/26 10:30:12;;;;;;;10.50;4.93;;;6.50;47.10;;;;;;5099380;28;20287;-75
2022/02/26 10:32:43;;;;;;;10.30;5.10;;;6.30;45.50;;;;;;5095605;28;20238;-75
2022/02/26 10:35:11;;;;;;;14.38;5.25;;;6.50;45.20;;;;;;5097238;28;20211;-73
2022/02/26 10:37:38;;;;;;;8.95;4.70;;;6.60;44.00;;;;;;5093715;28;20236;-74
2022/02/26 10:40:06;;;;;;;9.32;3.78;;;6.70;43.80;;;;;;5093966;28;20669;-73
2022/02/26 10:42:36;;;;;;;11.07;4.18;;;6.50;40.80;;;;;;5093648;28;20203;-74
2022/02/26 10:45:08;;;;;;;11.30;4.18;;;6.40;37.40;;;;;;5093442;28;20234;-75
2022/02/26 10:47:37;;;;;;;9.02;3.30;;;6.40;41.50;;;;;;5093869;28;20235;-76
2022/02/26 10:50:17;;;;;;;11.50;3.90;;;6.60;37.50;;;;;;5093588;28;20751;-73
2022/02/26 10:52:58;;;;;;;8.48;3.60;;;7.00;39.80;;;;;;5095443;28;20265;-73
2022/02/26 10:55:51;;;;;;;5.45;4.25;;;7.00;38.30;;;;;;5093982;28;20213;-75
2022/02/26 10:58:20;;;;;;;8.82;4.32;;;7.40;38.20;;;;;;5093209;28;20270;-74
2022/02/26 11:00:49;;;;;;;12.80;4.70;;;7.50;40.00;;;;;;5094973;28;20227;-72
2022/02/26 11:03:18;;;;;;;5.50;3.42;;;8.10;38.80;;;;;;5098048;28;20214;-73
2022/02/26 11:05:47;;;;;;;7.78;3.83;;;8.40;37.00;;;;;;5098816;28;20232;-73
2022/02/26 11:08:16;;;;;;;6.82;3.40;;;8.20;36.60;;;;;;5094614;28;20229;-73
2022/02/26 11:10:46;;;;;;;11.52;4.20;;;7.80;38.60;;;;;;5095832;28;20243;-74
2022/02/26 11:13:13;;;;;;;8.50;3.45;;;8.00;37.70;;;;;;5098409;28;20203;-75
2022/02/26 11:15:42;;;;;;;9.93;4.00;;;7.50;34.30;;;;;;5097570;28;20688;-75
2022/02/26 11:18:12;;;;;;;4.95;1.95;;;7.40;38.20;;;;;;5097046;28;20235;-73
2022/02/26 11:20:40;;;;;;;9.80;3.63;;;7.60;31.10;;;;;;5097101;28;20220;-74
2022/02/26 11:23:09;;;;;;;5.22;3.28;;;7.50;34.30;;;;;;5096624;28;20571;-74
2022/02/26 11:25:36;;;;;;;7.80;3.85;;;7.40;37.50;;;;;;5096204;28;20227;-75
2022/02/26 11:28:03;;;;;;;3.92;2.45;;;7.50;38.30;;;;;;5097256;28;20277;-73
2022/02/26 11:30:35;;;;;;;5.78;2.35;;;7.50;35.00;;;;;;5097098;28;20215;-73
2022/02/26 11:33:03;;;;;;;5.35;2.10;;;7.50;32.40;;;;;;5097965;28;20204;-73
2022/02/26 11:35:30;;;;;;;6.47;1.90;;;7.60;32.10;;;;;;5097397;28;20261;-74
2022/02/26 11:38:03;;;;;;;5.45;2.30;;;7.50;32.40;;;;;;5097002;28;20782;-75
2022/02/26 11:40:32;;;;;;;6.47;2.50;;;7.30;32.70;;;;;;5097770;28;20292;-74
2022/02/26 11:42:59;;;;;;;7.93;2.72;;;7.50;31.90;;;;;;5102453;28;20212;-74
2022/02/26 11:45:28;;;;;;;8.23;2.25;;;7.20;33.10;;;;;;5111044;28;20254;-74
2022/02/26 11:47:57;;;;;;;7.05;2.85;;;7.40;33.10;;;;;;5102864;28;20230;-75
2022/02/26 11:50:26;;;;;;;6.45;2.25;;;7.20;33.10;;;;;;5099481;28;20212;-74
2022/02/26 11:52:56;;;;;;;6.75;2.65;;;7.20;33.00;;;;;;5097757;28;20680;-74
2022/02/26 11:55:34;;;;;;;7.35;2.58;;;6.90;33.90;;;;;;5097018;28;20703;-74
2022/02/26 11:58:03;;;;;;;3.67;2.00;;;7.00;34.00;;;;;;5097131;28;20232;-75
2022/02/26 12:00:37;;;;;;;5.10;2.08;;;6.90;33.10;;;;;;5096110;28;20237;-73
2022/02/26 12:03:27;;;;;;;5.03;2.42;;;6.90;32.80;;;;;;5096009;28;20643;-74
2022/02/26 12:05:57;;;;;;;7.68;2.75;;;6.80;33.50;;;;;;5096961;28;20256;-75
2022/02/26 12:08:39;;;;;;;6.10;2.35;;;6.60;34.20;;;;;;5096726;28;20253;-74
2022/02/26 12:11:10;;;;;;;6.05;2.17;;;6.60;34.60;;;;;;5096368;28;20222;-73
2022/02/26 12:13:39;;;;;;;10.57;3.53;;;6.70;34.60;;;;;;5097413;28;20291;-75
2022/02/26 12:16:18;;;;;;;7.00;2.60;;;7.00;33.70;;;;;;5096672;28;20269;-73
2022/02/26 12:18:48;;;;;;;6.03;2.97;;;7.10;31.60;;;;;;5095875;28;20207;-75
2022/02/26 12:21:19;;;;;;;5.65;2.10;;;7.30;32.70;;;;;;5096556;28;20207;-74
2022/02/26 12:24:03;;;;;;;4.28;2.10;;;7.20;31.60;;;;;;5104960;28;20215;-74
2022/02/26 12:26:54;;;;;;;5.85;2.42;;;7.40;32.00;;;;;;5105399;28;20254;-74
2022/02/26 12:29:33;;;;;;;4.88;2.20;;;7.70;32.40;;;;;;5108722;28;20278;-73
2022/02/26 12:32:02;;;;;;;5.20;2.67;;;8.10;30.20;;;;;;5103696;28;20288;-75
2022/02/26 12:34:37;;;;;;;6.70;2.40;;;8.30;30.20;;;;;;5097074;28;20211;-75
2022/02/26 12:37:12;;;;;;;5.13;1.50;;;8.40;29.40;;;;;;5097550;28;20861;-75
2022/02/26 12:39:40;;;;;;;4.88;2.40;;;8.40;29.40;;;;;;5096419;28;20688;-74
2022/02/26 12:42:09;;;;;;;4.30;2.30;;;8.70;28.20;;;;;;5096545;28;20262;-75
2022/02/26 12:44:40;;;;;;;3.20;1.75;;;8.60;28.70;;;;;;5099825;28;20235;-74
2022/02/26 12:47:08;;;;;;;2.30;1.45;;;8.10;29.10;;;;;;5098725;28;20613;-75
2022/02/26 12:49:35;;;;;;;6.28;2.05;;;8.40;28.70;;;;;;5101808;28;20501;-74
2022/02/26 12:52:04;;;;;;;7.43;2.97;;;8.60;28.20;;;;;;5099976;28;20698;-74